Time;durP1;ratioP1;P1;durP2;ratioP2;P2;SDS_P1;SDS_P2;PMS_P1;PMS_P2;Temp;Humidity;BMP_temperature;BMP_pressure;BME280_temperature;BME280_humidity;BME280_pressure;Samples;Min_cycle;Max_cycle;Signal;HPM_P1;HPM_P2
2021/05/30 00:01:59;;;;;;;2.42;1.75;;;12.90;91.60;;;;;;5018917;28;20318;-70
2021/05/30 00:04:25;;;;;;;3.25;1.90;;;12.80;91.80;;;;;;5018790;28;20058;-70
2021/05/30 00:06:51;;;;;;;4.15;1.90;;;12.70;92.00;;;;;;5019144;28;20092;-70
2021/05/30 00:09:16;;;;;;;3.00;1.70;;;12.60;92.50;;;;;;5019122;28;20421;-70
2021/05/30 00:11:42;;;;;;;2.55;1.50;;;12.60;92.80;;;;;;5019006;28;20026;-70
2021/05/30 00:14:08;;;;;;;2.47;2.00;;;12.60;91.90;;;;;;5018974;28;20022;-70
2021/05/30 00:16:35;;;;;;;5.78;3.15;;;12.60;92.30;;;;;;5018880;28;20116;-70
2021/05/30 00:19:01;;;;;;;2.92;1.90;;;12.70;93.00;;;;;;5018607;28;20045;-70
2021/05/30 00:21:28;;;;;;;4.07;1.70;;;12.80;92.60;;;;;;5017967;28;20034;-70
2021/05/30 00:23:54;;;;;;;3.28;2.00;;;12.80;91.90;;;;;;5018777;28;20379;-70
2021/05/30 00:26:20;;;;;;;2.70;1.83;;;12.80;91.60;;;;;;5018687;28;20037;-70
2021/05/30 00:28:46;;;;;;;2.60;2.15;;;12.80;92.70;;;;;;5018787;28;20326;-70
2021/05/30 00:31:11;;;;;;;3.17;2.20;;;12.70;92.40;;;;;;5018417;28;20076;-70
2021/05/30 00:33:37;;;;;;;2.40;1.60;;;12.70;92.40;;;;;;5018732;28;20437;-70
2021/05/30 00:36:03;;;;;;;6.43;2.00;;;12.70;92.40;;;;;;5018234;28;20374;-70
2021/05/30 00:38:29;;;;;;;2.47;1.75;;;12.80;91.60;;;;;;5018238;28;20034;-70
2021/05/30 00:40:55;;;;;;;3.50;1.67;;;12.80;91.80;;;;;;5018457;28;20025;-70
2021/05/30 00:43:21;;;;;;;2.38;1.75;;;12.80;90.90;;;;;;5018406;28;20033;-70
2021/05/30 00:45:48;;;;;;;3.45;2.33;;;12.90;91.00;;;;;;5018539;28;20131;-70
2021/05/30 00:48:15;;;;;;;2.55;2.35;;;12.90;90.70;;;;;;5018035;28;20053;-70
2021/05/30 00:50:41;;;;;;;5.32;2.00;;;13.00;90.80;;;;;;5018310;28;20026;-70
2021/05/30 00:53:07;;;;;;;87.35;6.15;;;13.00;91.00;;;;;;5018284;28;20021;-70
2021/05/30 00:55:33;;;;;;;11.82;8.55;;;13.00;91.20;;;;;;5017905;28;20029;-70
2021/05/30 00:57:58;;;;;;;4.32;2.15;;;13.00;91.10;;;;;;5017854;28;20037;-70
2021/05/30 01:00:25;;;;;;;2.70;2.00;;;13.00;90.80;;;;;;5018153;28;20030;-70
2021/05/30 01:02:51;;;;;;;3.63;2.45;;;13.00;90.60;;;;;;5017829;28;20025;-70
2021/05/30 01:05:17;;;;;;;3.33;1.95;;;12.90;91.00;;;;;;5017610;28;20091;-70
2021/05/30 01:07:45;;;;;;;4.55;1.60;;;13.00;90.90;;;;;;5018022;28;20068;-70
2021/05/30 01:10:18;;;;;;;4.18;1.80;;;12.90;90.20;;;;;;5017978;28;20315;-70
2021/05/30 01:12:46;;;;;;;3.75;1.40;;;12.90;91.60;;;;;;5018008;28;20041;-70
2021/05/30 01:15:13;;;;;;;1.83;1.40;;;12.60;91.10;;;;;;5017896;28;20033;-70
2021/05/30 01:17:40;;;;;;;2.78;1.30;;;12.40;92.40;;;;;;5017837;28;20357;-70
2021/05/30 01:20:12;;;;;;;2.72;1.40;;;12.20;92.60;;;;;;5017406;28;20049;-70
2021/05/30 01:22:39;;;;;;;1.40;1.13;;;12.20;92.80;;;;;;5017477;28;20113;-70
2021/05/30 01:25:06;;;;;;;3.35;1.30;;;12.10;93.20;;;;;;5017589;28;20101;-70
2021/05/30 01:27:31;;;;;;;3.22;1.13;;;12.10;92.40;;;;;;5017667;28;20022;-70
2021/05/30 01:29:57;;;;;;;1.38;1.20;;;12.10;92.90;;;;;;5017375;28;20407;-70
2021/05/30 01:32:23;;;;;;;2.55;1.17;;;12.00;92.10;;;;;;5017161;28;20046;-70
2021/05/30 01:34:48;;;;;;;1.10;0.80;;;12.00;92.30;;;;;;5017242;28;20053;-70
2021/05/30 01:37:14;;;;;;;4.70;1.00;;;12.00;93.00;;;;;;5017551;28;20080;-70
2021/05/30 01:39:40;;;;;;;2.08;1.20;;;12.00;93.00;;;;;;5017233;28;20025;-70
2021/05/30 01:42:06;;;;;;;6.20;1.30;;;12.10;93.40;;;;;;5017445;28;20032;-70
2021/05/30 01:44:32;;;;;;;2.33;2.00;;;12.00;93.20;;;;;;5017304;28;20618;-70
2021/05/30 01:46:58;;;;;;;2.40;2.20;;;12.00;93.70;;;;;;5017143;28;20072;-70
2021/05/30 01:49:24;;;;;;;7.45;2.35;;;12.10;93.40;;;;;;5017375;28;20377;-70
2021/05/30 01:51:50;;;;;;;3.97;1.80;;;12.30;93.40;;;;;;5017030;28;20033;-70
2021/05/30 01:54:18;;;;;;;66.63;24.80;;;12.40;91.90;;;;;;5017278;28;20109;-70
2021/05/30 01:56:57;;;;;;;2.88;2.08;;;12.40;92.50;;;;;;5017275;28;20322;-70
2021/05/30 01:59:24;;;;;;;2.40;2.17;;;12.60;90.70;;;;;;5017282;28;20034;-70
2021/05/30 02:01:53;;;;;;;3.25;1.45;;;12.60;91.80;;;;;;5017228;28;20026;-70
2021/05/30 02:04:22;;;;;;;2.72;1.38;;;12.60;91.60;;;;;;5017118;28;20104;-70
2021/05/30 02:06:49;;;;;;;170.15;11.45;;;12.60;91.30;;;;;;5016834;28;20025;-70
2021/05/30 02:09:16;;;;;;;109.32;10.05;;;12.60;90.80;;;;;;5017166;28;20029;-70
2021/05/30 02:11:43;;;;;;;1.95;1.63;;;12.60;91.50;;;;;;5017111;28;20025;-70
2021/05/30 02:14:09;;;;;;;2.33;1.20;;;12.50;91.30;;;;;;5017068;28;20057;-70
2021/05/30 02:16:37;;;;;;;4.07;1.42;;;12.40;91.40;;;;;;5016691;28;20029;-70
2021/05/30 02:19:04;;;;;;;2.65;1.48;;;12.40;91.40;;;;;;5016572;28;20057;-70
2021/05/30 02:21:47;;;;;;;5.20;1.83;;;12.30;91.40;;;;;;5016730;28;20030;-70
2021/05/30 02:24:14;;;;;;;3.10;2.33;;;12.30;91.60;;;;;;5016646;28;20429;-70
2021/05/30 02:26:41;;;;;;;2.90;2.10;;;12.20;92.90;;;;;;5016712;28;20057;-70
2021/05/30 02:29:08;;;;;;;3.90;2.10;;;12.20;93.10;;;;;;5016681;28;20029;-70
2021/05/30 02:31:33;;;;;;;298.40;20.40;;;12.20;92.70;;;;;;5016612;28;20018;-70
2021/05/30 02:34:00;;;;;;;356.33;62.03;;;12.20;92.70;;;;;;5016661;28;20030;-69
2021/05/30 02:36:27;;;;;;;1.98;1.55;;;12.20;92.80;;;;;;5016915;28;20026;-70
2021/05/30 02:38:54;;;;;;;4.60;2.10;;;12.30;93.10;;;;;;5016615;28;20065;-70
2021/05/30 02:41:19;;;;;;;2.95;2.17;;;12.40;92.70;;;;;;5016544;28;20030;-70
2021/05/30 02:43:48;;;;;;;6.03;2.47;;;12.40;91.70;;;;;;5018219;28;20036;-70
2021/05/30 02:46:16;;;;;;;17.50;3.35;;;12.50;91.70;;;;;;5020742;28;20041;-70
2021/05/30 02:48:42;;;;;;;3.38;2.13;;;12.60;91.10;;;;;;5020636;28;20064;-70
2021/05/30 02:51:08;;;;;;;3.40;1.95;;;12.70;90.90;;;;;;5020522;28;20088;-70
2021/05/30 02:53:34;;;;;;;2.70;1.80;;;12.80;91.10;;;;;;5020597;28;20358;-70
2021/05/30 02:56:00;;;;;;;2.35;1.70;;;12.80;90.90;;;;;;5020274;28;20048;-70
2021/05/30 02:58:29;;;;;;;4.68;1.83;;;12.80;90.50;;;;;;5020422;28;20076;-70
2021/05/30 03:00:55;;;;;;;4.80;1.50;;;12.70;90.40;;;;;;5020419;28;20034;-70
2021/05/30 03:03:21;;;;;;;1.83;1.45;;;12.70;90.60;;;;;;5020323;28;20022;-70
2021/05/30 03:05:47;;;;;;;1.60;1.35;;;12.60;91.40;;;;;;5020260;28;20049;-70
2021/05/30 03:08:13;;;;;;;3.33;1.23;;;12.60;91.10;;;;;;5020257;28;20426;-70
2021/05/30 03:10:39;;;;;;;1.52;1.15;;;12.50;91.20;;;;;;5020251;28;20030;-70
2021/05/30 03:13:04;;;;;;;2.50;1.20;;;12.50;90.40;;;;;;5019927;28;20430;-70
2021/05/30 03:15:30;;;;;;;2.15;1.17;;;12.50;90.90;;;;;;5019803;28;20033;-70
2021/05/30 03:17:56;;;;;;;1.83;1.15;;;12.50;90.50;;;;;;5019735;28;20029;-70
2021/05/30 03:20:22;;;;;;;1.85;1.02;;;12.50;88.60;;;;;;5019560;28;20058;-70
2021/05/30 03:22:48;;;;;;;1.63;0.75;;;12.50;89.90;;;;;;5020018;28;20049;-70
2021/05/30 03:25:14;;;;;;;2.10;1.30;;;12.50;89.70;;;;;;5019503;28;20030;-70
2021/05/30 03:27:40;;;;;;;1.70;1.13;;;12.50;90.50;;;;;;5019573;28;20026;-70
2021/05/30 03:30:07;;;;;;;3.53;1.42;;;12.50;90.40;;;;;;5019508;28;20089;-70
2021/05/30 03:32:33;;;;;;;1.10;1.00;;;12.50;90.40;;;;;;5019523;28;20041;-70
2021/05/30 03:34:59;;;;;;;2.63;1.02;;;12.50;90.40;;;;;;5019749;28;20053;-70
2021/05/30 03:37:25;;;;;;;1.85;1.05;;;12.40;91.10;;;;;;5019751;28;20050;-70
2021/05/30 03:39:54;;;;;;;2.15;1.42;;;12.40;91.40;;;;;;5019694;28;20060;-70
2021/05/30 03:42:23;;;;;;;2.28;1.52;;;12.40;90.50;;;;;;5019324;28;20037;-70
2021/05/30 03:44:49;;;;;;;2.50;1.63;;;12.40;90.90;;;;;;5019302;28;20038;-70
2021/05/30 03:47:15;;;;;;;1.70;1.30;;;12.40;90.80;;;;;;5019539;28;20030;-70
2021/05/30 03:49:41;;;;;;;1.90;1.45;;;12.40;90.80;;;;;;5019201;28;20362;-70
2021/05/30 03:52:08;;;;;;;49.15;3.72;;;12.40;90.90;;;;;;5019429;28;20132;-70
2021/05/30 03:54:34;;;;;;;3.92;2.25;;;12.40;91.10;;;;;;5018217;28;20057;-70
2021/05/30 03:57:00;;;;;;;2.10;1.67;;;12.50;91.20;;;;;;5018983;28;20050;-70
2021/05/30 03:59:25;;;;;;;2.88;2.05;;;12.50;91.00;;;;;;5019248;28;20037;-70
2021/05/30 04:01:51;;;;;;;1.30;1.10;;;12.50;90.70;;;;;;5018942;28;20026;-70
2021/05/30 04:04:17;;;;;;;56.65;13.00;;;12.50;91.20;;;;;;5019089;28;20110;-70
2021/05/30 04:06:42;;;;;;;2.42;1.30;;;12.40;91.60;;;;;;5019195;28;20411;-70
2021/05/30 04:09:08;;;;;;;2.03;1.40;;;12.40;91.00;;;;;;5019117;28;20402;-70
2021/05/30 04:11:34;;;;;;;2.13;1.58;;;12.20;91.40;;;;;;5019081;28;20026;-70
2021/05/30 04:13:59;;;;;;;1.98;1.45;;;12.20;91.80;;;;;;5019029;28;20113;-70
2021/05/30 04:16:25;;;;;;;1.48;0.95;;;12.20;91.50;;;;;;5018949;28;20037;-70
2021/05/30 04:18:51;;;;;;;2.80;1.80;;;12.20;91.20;;;;;;5018486;28;20072;-70
2021/05/30 04:21:17;;;;;;;2.97;2.25;;;12.20;90.80;;;;;;5018616;28;20021;-70
2021/05/30 04:23:42;;;;;;;3.53;2.00;;;12.30;90.90;;;;;;5018853;28;20026;-70
2021/05/30 04:26:08;;;;;;;2.97;1.92;;;12.30;91.10;;;;;;5018413;28;20025;-70
2021/05/30 04:28:34;;;;;;;4.05;2.40;;;12.40;90.60;;;;;;5018761;28;20022;-70
2021/05/30 04:31:00;;;;;;;2.50;2.28;;;12.50;90.60;;;;;;5018421;28;20314;-70
2021/05/30 04:33:26;;;;;;;38.00;15.10;;;12.50;90.20;;;;;;5018747;28;20117;-70
2021/05/30 04:35:51;;;;;;;2.42;1.85;;;12.50;89.60;;;;;;5018567;28;20036;-70
2021/05/30 04:38:18;;;;;;;2.78;1.75;;;12.60;90.30;;;;;;5018266;28;20026;-70
2021/05/30 04:40:44;;;;;;;2.53;1.50;;;12.70;90.40;;;;;;5018513;28;20361;-70
2021/05/30 04:43:10;;;;;;;3.83;1.60;;;12.70;90.10;;;;;;5033717;28;20030;-70
2021/05/30 04:45:36;;;;;;;2.60;1.60;;;12.70;90.20;;;;;;5018357;28;20073;-70
2021/05/30 04:48:02;;;;;;;3.42;1.55;;;12.80;90.00;;;;;;5018077;28;20030;-70
2021/05/30 04:50:28;;;;;;;1.65;1.27;;;12.90;90.30;;;;;;5018349;28;20018;-70
2021/05/30 04:52:54;;;;;;;2.25;1.20;;;13.00;89.80;;;;;;5018347;28;20037;-70
2021/05/30 04:55:19;;;;;;;2.40;1.40;;;13.00;88.70;;;;;;5018227;28;20410;-70
2021/05/30 04:57:45;;;;;;;1.67;1.40;;;13.00;89.10;;;;;;5018262;28;20040;-70
2021/05/30 05:00:12;;;;;;;2.15;1.20;;;12.90;89.00;;;;;;5017875;28;20414;-70
2021/05/30 05:02:38;;;;;;;1.83;1.30;;;13.00;89.10;;;;;;5018418;28;20034;-70
2021/05/30 05:05:05;;;;;;;2.42;1.17;;;13.10;89.40;;;;;;5017969;28;20102;-70
2021/05/30 05:07:31;;;;;;;2.60;1.40;;;13.20;89.10;;;;;;5017323;28;20105;-70
2021/05/30 05:09:57;;;;;;;1.83;1.23;;;13.20;89.30;;;;;;5018048;28;20098;-70
2021/05/30 05:12:22;;;;;;;1.55;1.05;;;13.20;89.30;;;;;;5017988;28;20026;-70
2021/05/30 05:14:48;;;;;;;1.85;1.27;;;13.20;89.40;;;;;;5017925;28;20030;-70
2021/05/30 05:17:14;;;;;;;2.58;1.00;;;13.20;88.70;;;;;;5017869;28;20418;-70
2021/05/30 05:19:40;;;;;;;1.33;1.00;;;13.20;90.00;;;;;;5017462;28;20100;-70
2021/05/30 05:22:06;;;;;;;1.63;0.90;;;13.20;89.40;;;;;;5017755;28;20033;-70
2021/05/30 05:24:32;;;;;;;1.33;1.02;;;13.20;89.40;;;;;;5017676;28;20026;-70
2021/05/30 05:26:58;;;;;;;2.50;1.13;;;13.30;89.00;;;;;;5017382;28;20025;-70
2021/05/30 05:29:23;;;;;;;2.40;1.10;;;13.50;89.50;;;;;;5017405;28;20050;-70
2021/05/30 05:31:49;;;;;;;2.08;0.95;;;13.80;89.30;;;;;;5017340;28;20076;-70
2021/05/30 05:34:15;;;;;;;1.52;0.90;;;13.90;88.90;;;;;;5017596;28;20105;-70
2021/05/30 05:36:40;;;;;;;1.10;0.60;;;14.00;88.40;;;;;;5017577;28;20025;-70
2021/05/30 05:39:06;;;;;;;1.90;0.70;;;14.20;85.70;;;;;;5017248;28;20025;-70
2021/05/30 05:41:32;;;;;;;2.38;1.08;;;14.40;86.80;;;;;;5017186;28;20025;-70
2021/05/30 05:43:58;;;;;;;2.17;0.85;;;14.40;87.50;;;;;;5017347;28;20104;-70
2021/05/30 05:46:24;;;;;;;1.80;1.00;;;14.40;86.00;;;;;;5017362;28;20437;-70
2021/05/30 05:48:50;;;;;;;1.65;0.80;;;14.40;84.90;;;;;;5017124;28;20426;-70
2021/05/30 05:51:15;;;;;;;1.60;1.00;;;14.40;87.60;;;;;;5017064;28;20030;-70
2021/05/30 05:53:41;;;;;;;1.50;1.00;;;14.30;85.60;;;;;;5017421;28;20064;-70
2021/05/30 05:56:07;;;;;;;0.90;0.80;;;14.40;86.00;;;;;;5017218;28;20083;-70
2021/05/30 05:58:32;;;;;;;4.65;1.13;;;14.70;85.80;;;;;;5017315;28;20024;-70
2021/05/30 06:00:59;;;;;;;2.17;0.90;;;15.00;82.90;;;;;;5016904;28;20381;-70
2021/05/30 06:03:25;;;;;;;2.30;1.00;;;15.00;83.80;;;;;;5016920;28;20488;-70
2021/05/30 06:05:50;;;;;;;1.70;0.95;;;14.80;84.10;;;;;;5017220;28;20025;-70
2021/05/30 06:08:16;;;;;;;1.02;0.63;;;14.90;83.50;;;;;;5016921;28;20314;-70
2021/05/30 06:10:42;;;;;;;2.38;1.10;;;15.60;82.90;;;;;;5016826;28;20026;-70
2021/05/30 06:13:10;;;;;;;1.58;0.90;;;16.50;80.60;;;;;;5016872;28;20022;-71
2021/05/30 06:15:41;;;;;;;2.67;0.77;;;17.50;75.10;;;;;;5017212;28;20050;-71
2021/05/30 06:18:15;;;;;;;1.63;0.70;;;18.40;72.20;;;;;;5017199;28;20030;-71
2021/05/30 06:20:42;;;;;;;1.10;0.80;;;19.00;69.90;;;;;;5021152;28;20056;-71
2021/05/30 06:23:09;;;;;;;1.52;0.80;;;19.40;69.40;;;;;;5021128;28;20025;-71
2021/05/30 06:25:35;;;;;;;1.35;0.90;;;20.00;68.70;;;;;;5020932;28;20369;-71
2021/05/30 06:28:01;;;;;;;1.63;0.80;;;20.70;65.20;;;;;;5021023;28;20326;-71
2021/05/30 06:30:36;;;;;;;6.13;0.90;;;20.90;67.60;;;;;;5020646;28;20029;-71
2021/05/30 06:33:06;;;;;;;;;;;21.30;65.70;;;;;;5021084;28;20034;-71
2021/05/30 06:35:32;;;;;;;1.00;0.60;;;21.60;64.20;;;;;;5020824;28;20293;-71
2021/05/30 06:37:58;;;;;;;2.35;1.00;;;22.20;65.90;;;;;;5020524;28;20030;-71
2021/05/30 06:40:24;;;;;;;1.83;0.82;;;22.60;61.70;;;;;;5020791;28;20026;-70
2021/05/30 06:42:50;;;;;;;1.65;1.00;;;22.90;61.80;;;;;;5020645;28;20030;-71
2021/05/30 06:45:16;;;;;;;2.08;0.93;;;23.10;60.80;;;;;;5020654;28;20037;-71
2021/05/30 06:47:41;;;;;;;1.33;0.80;;;23.00;60.90;;;;;;5020693;28;20368;-69
2021/05/30 06:50:07;;;;;;;4.63;0.90;;;22.90;61.20;;;;;;5020290;28;20034;-70
2021/05/30 06:52:33;;;;;;;1.65;0.93;;;23.00;63.70;;;;;;5020281;28;20109;-70
2021/05/30 06:54:59;;;;;;;65.20;3.53;;;23.20;62.80;;;;;;5020217;28;20037;-70
2021/05/30 06:57:25;;;;;;;1.15;0.80;;;23.40;60.00;;;;;;5020198;28;20026;-69
2021/05/30 06:59:51;;;;;;;1.83;0.70;;;23.60;61.00;;;;;;5020175;28;20025;-69
2021/05/30 07:02:17;;;;;;;2.10;0.60;;;23.80;60.10;;;;;;5020395;28;20026;-69
2021/05/30 07:04:43;;;;;;;1.63;0.73;;;24.20;60.10;;;;;;5020221;28;20030;-69
2021/05/30 07:07:09;;;;;;;1.98;0.88;;;24.40;58.90;;;;;;5020351;28;20018;-69
2021/05/30 07:09:35;;;;;;;1.55;0.98;;;24.40;57.90;;;;;;5020296;28;20026;-69
2021/05/30 07:12:00;;;;;;;1.40;0.88;;;24.30;56.70;;;;;;5018881;28;20025;-69
2021/05/30 07:14:26;;;;;;;1.30;0.80;;;24.30;57.30;;;;;;5020000;28;20049;-69
2021/05/30 07:16:56;;;;;;;3.80;0.88;;;24.20;59.10;;;;;;5020165;28;20033;-69
2021/05/30 07:19:22;;;;;;;2.08;0.80;;;24.20;58.20;;;;;;5019579;28;20069;-69
2021/05/30 07:21:49;;;;;;;1.35;0.65;;;24.40;56.80;;;;;;5020008;28;20029;-69
2021/05/30 07:24:14;;;;;;;2.17;0.73;;;24.30;57.20;;;;;;5019880;28;20041;-69
2021/05/30 07:26:41;;;;;;;1.48;0.80;;;23.80;58.50;;;;;;5019663;28;20026;-69
2021/05/30 07:29:07;;;;;;;1.30;0.77;;;22.90;60.50;;;;;;5019258;28;20026;-69
2021/05/30 07:31:33;;;;;;;2.05;0.90;;;21.60;61.00;;;;;;5019540;28;20101;-69
2021/05/30 07:34:00;;;;;;;2.35;0.80;;;21.00;63.60;;;;;;5019851;28;20104;-69
2021/05/30 07:36:28;;;;;;;1.05;0.70;;;21.00;64.70;;;;;;5019409;28;20057;-69
2021/05/30 07:38:55;;;;;;;1.67;0.80;;;21.30;65.60;;;;;;5019702;28;20133;-69
2021/05/30 07:41:21;;;;;;;1.38;0.70;;;21.70;60.70;;;;;;5019357;28;20025;-69
2021/05/30 07:43:47;;;;;;;1.55;1.00;;;22.10;60.00;;;;;;5020057;28;20029;-69
2021/05/30 07:46:12;;;;;;;2.38;0.90;;;22.30;62.10;;;;;;5019738;28;20045;-69
2021/05/30 07:48:38;;;;;;;2.95;0.68;;;22.70;60.10;;;;;;5019562;28;20026;-69
2021/05/30 07:51:04;;;;;;;2.00;0.70;;;22.80;56.10;;;;;;5019150;28;20026;-69
2021/05/30 07:53:30;;;;;;;1.23;0.80;;;22.50;56.60;;;;;;5019192;28;20029;-69
2021/05/30 07:55:56;;;;;;;1.15;0.55;;;22.90;56.10;;;;;;5019389;28;20021;-70
2021/05/30 07:58:21;;;;;;;1.30;0.75;;;23.30;56.60;;;;;;5019351;28;20314;-70
2021/05/30 08:00:48;;;;;;;1.42;0.52;;;23.50;55.10;;;;;;5019362;28;20024;-70
2021/05/30 08:03:14;;;;;;;0.88;0.63;;;23.50;53.20;;;;;;5019320;28;20295;-70
2021/05/30 08:05:40;;;;;;;2.00;0.70;;;22.40;56.00;;;;;;5018819;28;20083;-70
2021/05/30 08:08:06;;;;;;;1.80;0.70;;;20.50;57.90;;;;;;5019192;28;20034;-69
2021/05/30 08:10:31;;;;;;;0.90;0.50;;;19.30;59.60;;;;;;5018838;28;20026;-69
2021/05/30 08:12:57;;;;;;;2.33;0.70;;;18.60;62.60;;;;;;5018817;28;20037;-69
2021/05/30 08:15:24;;;;;;;0.77;0.60;;;17.90;64.00;;;;;;5019294;28;20034;-69
2021/05/30 08:17:51;;;;;;;1.20;0.65;;;17.50;66.90;;;;;;5019002;28;20030;-69
2021/05/30 08:20:18;;;;;;;1.20;0.80;;;17.40;68.20;;;;;;5018513;28;20049;-69
2021/05/30 08:22:45;;;;;;;0.60;0.40;;;18.10;68.70;;;;;;5018955;28;20034;-70
2021/05/30 08:25:11;;;;;;;0.52;0.40;;;18.90;71.10;;;;;;5018411;28;20029;-70
2021/05/30 08:27:37;;;;;;;1.25;0.70;;;20.40;71.50;;;;;;5018774;28;20030;-70
2021/05/30 08:30:06;;;;;;;1.02;0.70;;;21.70;66.70;;;;;;5018434;28;20445;-70
2021/05/30 08:32:32;;;;;;;60.70;3.40;;;23.00;62.40;;;;;;5018416;28;20419;-70
2021/05/30 08:34:58;;;;;;;1.83;0.98;;;24.10;56.40;;;;;;5018568;28;20033;-70
2021/05/30 08:37:23;;;;;;;2.00;0.80;;;24.40;57.50;;;;;;5018540;28;20033;-70
2021/05/30 08:39:51;;;;;;;1.70;0.80;;;24.90;60.80;;;;;;5018224;28;20423;-70
2021/05/30 08:42:21;;;;;;;2.30;0.60;;;25.20;56.00;;;;;;5017457;28;20029;-70
2021/05/30 08:44:52;;;;;;;0.93;0.65;;;25.50;61.00;;;;;;5018176;28;20045;-70
2021/05/30 08:47:22;;;;;;;1.15;0.65;;;25.40;57.50;;;;;;5018162;28;20030;-70
2021/05/30 08:49:48;;;;;;;1.10;0.90;;;25.00;52.60;;;;;;5018080;28;20026;-70
2021/05/30 08:52:15;;;;;;;2.22;1.30;;;24.50;55.00;;;;;;5018010;28;20069;-70
2021/05/30 08:54:41;;;;;;;3.17;1.20;;;24.90;56.10;;;;;;5018066;28;20030;-70
2021/05/30 08:57:07;;;;;;;8.20;6.18;;;25.80;56.10;;;;;;5018275;28;20053;-70
2021/05/30 08:59:34;;;;;;;2.08;0.80;;;26.80;56.40;;;;;;5017967;28;20076;-70
2021/05/30 09:02:10;;;;;;;1.45;0.77;;;27.30;53.90;;;;;;5018180;28;20033;-70
2021/05/30 09:04:48;;;;;;;7.00;4.47;;;27.50;55.20;;;;;;5018016;28;20037;-70
2021/05/30 09:07:14;;;;;;;5.75;3.70;;;27.30;54.80;;;;;;5017872;28;20034;-70
2021/05/30 09:09:48;;;;;;;1.50;0.63;;;25.90;53.30;;;;;;5017752;28;20026;-70
2021/05/30 09:12:30;;;;;;;1.67;0.70;;;24.50;55.70;;;;;;5018001;28;20315;-70
2021/05/30 09:14:57;;;;;;;0.93;0.63;;;23.50;58.80;;;;;;5017980;28;20128;-70
2021/05/30 09:17:27;;;;;;;1.20;0.80;;;22.20;57.40;;;;;;5017841;28;20038;-70
2021/05/30 09:19:54;;;;;;;1.27;0.60;;;21.30;60.00;;;;;;5017276;28;20050;-70
2021/05/30 09:22:37;;;;;;;1.90;0.80;;;21.60;58.70;;;;;;5017702;28;20080;-70
2021/05/30 09:25:14;;;;;;;1.15;0.50;;;22.60;58.10;;;;;;5017396;28;20109;-70
2021/05/30 09:27:50;;;;;;;1.67;0.70;;;23.20;59.20;;;;;;5017390;28;20022;-70
2021/05/30 09:30:32;;;;;;;2.05;0.80;;;23.80;55.80;;;;;;5017340;28;20030;-70
2021/05/30 09:33:08;;;;;;;1.02;0.57;;;24.70;52.90;;;;;;5017677;28;20030;-70
2021/05/30 09:35:37;;;;;;;1.33;0.65;;;25.60;52.20;;;;;;5017582;28;20033;-70
2021/05/30 09:38:38;;;;;;;1.52;0.60;;;26.10;51.40;;;;;;5017266;28;20032;-70
2021/05/30 09:41:08;;;;;;;1.63;0.70;;;26.10;49.30;;;;;;5017576;28;20029;-70
2021/05/30 09:43:47;;;;;;;1.40;0.75;;;25.80;46.80;;;;;;5017200;28;20363;-70
2021/05/30 09:46:18;;;;;;;1.35;0.63;;;24.90;55.60;;;;;;5017865;28;20030;-70
2021/05/30 09:48:51;;;;;;;2.22;0.75;;;23.80;53.70;;;;;;5017195;28;20034;-70
2021/05/30 09:51:24;;;;;;;1.38;0.60;;;23.30;56.50;;;;;;5017106;28;20081;-70
2021/05/30 09:53:51;;;;;;;1.85;0.70;;;24.00;54.90;;;;;;5016991;28;20369;-70
2021/05/30 09:56:39;;;;;;;2.95;0.73;;;24.70;51.50;;;;;;5016926;28;20018;-70
2021/05/30 09:59:11;;;;;;;1.92;0.75;;;25.40;50.10;;;;;;5017299;28;20026;-70
2021/05/30 10:02:00;;;;;;;2.90;0.52;;;25.90;52.00;;;;;;5016991;28;20026;-70
2021/05/30 10:04:31;;;;;;;1.85;0.57;;;26.30;54.10;;;;;;5017157;28;20037;-70
2021/05/30 10:06:58;;;;;;;1.58;0.70;;;26.40;48.90;;;;;;5017227;28;20349;-70
2021/05/30 10:09:26;;;;;;;10.93;1.75;;;26.60;51.70;;;;;;5017177;28;20030;-70
2021/05/30 10:11:52;;;;;;;2.38;0.70;;;26.70;51.80;;;;;;5016833;28;20068;-70
2021/05/30 10:14:18;;;;;;;1.23;0.77;;;26.80;52.00;;;;;;5016708;28;20042;-70
2021/05/30 10:16:44;;;;;;;2.03;0.80;;;27.00;49.30;;;;;;5021166;28;20037;-70
2021/05/30 10:19:16;;;;;;;1.60;0.70;;;26.80;48.60;;;;;;5024666;28;20057;-70
2021/05/30 10:21:46;;;;;;;0.90;0.60;;;26.80;52.30;;;;;;5017120;28;20396;-70
2021/05/30 10:24:14;;;;;;;1.15;0.77;;;26.80;49.80;;;;;;5016964;28;20022;-70
2021/05/30 10:26:39;;;;;;;1.10;0.68;;;26.00;48.10;;;;;;5016693;28;20022;-70
2021/05/30 10:29:17;;;;;;;1.35;0.63;;;25.90;54.00;;;;;;5016996;28;20084;-70
2021/05/30 10:31:45;;;;;;;1.77;0.60;;;26.40;49.60;;;;;;5016957;28;20318;-70
2021/05/30 10:34:11;;;;;;;1.05;0.60;;;26.60;53.50;;;;;;5016988;28;20041;-70
2021/05/30 10:36:38;;;;;;;1.05;0.60;;;26.70;46.50;;;;;;5016859;28;20406;-70
2021/05/30 10:39:29;;;;;;;1.38;0.80;;;26.90;48.10;;;;;;5016923;28;20318;-70
2021/05/30 10:42:15;;;;;;;1.20;0.60;;;27.20;51.90;;;;;;5016915;28;20026;-70
2021/05/30 10:44:56;;;;;;;1.67;0.60;;;26.20;49.00;;;;;;5016819;28;20372;-70
2021/05/30 10:47:45;;;;;;;0.88;0.55;;;24.90;52.70;;;;;;5020633;28;20060;-70
2021/05/30 10:50:19;;;;;;;2.47;1.10;;;23.90;51.80;;;;;;5018407;28;20061;-70
2021/05/30 10:52:47;;;;;;;1.80;0.85;;;23.40;56.40;;;;;;5016526;28;20101;-70
2021/05/30 10:55:26;;;;;;;1.55;0.82;;;23.30;56.80;;;;;;5016455;28;20034;-70
2021/05/30 10:57:52;;;;;;;1.58;0.60;;;23.30;57.90;;;;;;5016837;28;20410;-70
2021/05/30 11:00:20;;;;;;;0.95;0.75;;;23.00;57.50;;;;;;5016418;28;20109;-70
2021/05/30 11:03:05;;;;;;;1.55;0.80;;;22.60;55.40;;;;;;5016448;28;20038;-70
2021/05/30 11:05:47;;;;;;;65.80;3.50;;;22.20;56.20;;;;;;5019091;28;20034;-70
2021/05/30 11:08:31;;;;;;;97.43;6.95;;;21.80;57.30;;;;;;5020001;28;20033;-70
2021/05/30 11:11:29;;;;;;;1.77;0.80;;;21.40;58.80;;;;;;5019941;28;20112;-69
2021/05/30 11:14:09;;;;;;;2.60;0.80;;;20.90;58.50;;;;;;5015517;28;20030;-70
2021/05/30 11:16:40;;;;;;;1.30;0.80;;;20.60;60.30;;;;;;5020160;28;20037;-69
2021/05/30 11:19:11;;;;;;;2.22;1.10;;;20.40;61.20;;;;;;5019669;28;20100;-71
2021/05/30 11:21:38;;;;;;;1.17;0.80;;;20.70;64.00;;;;;;5020069;28;20040;-71
2021/05/30 11:24:06;;;;;;;0.80;0.60;;;20.90;62.20;;;;;;5019684;28;20026;-71
2021/05/30 11:26:32;;;;;;;1.17;0.75;;;20.80;61.10;;;;;;5019584;28;20029;-70
2021/05/30 11:28:59;;;;;;;309.45;36.85;;;20.70;62.20;;;;;;5019603;28;20021;-71
2021/05/30 11:31:26;;;;;;;1.25;0.80;;;20.70;59.20;;;;;;5019616;28;20415;-71
2021/05/30 11:34:04;;;;;;;1.00;0.50;;;20.60;60.30;;;;;;5019903;28;20025;-71
2021/05/30 11:36:32;;;;;;;1.25;0.93;;;20.80;60.30;;;;;;5019410;28;20038;-71
2021/05/30 11:39:06;;;;;;;0.85;0.77;;;21.20;60.00;;;;;;5019749;28;20076;-71
2021/05/30 11:41:34;;;;;;;1.13;0.50;;;21.40;58.90;;;;;;5019743;28;20041;-69
2021/05/30 11:44:14;;;;;;;1.52;0.65;;;21.60;59.60;;;;;;5019512;28;20022;-71
2021/05/30 11:46:49;;;;;;;1.40;0.57;;;21.80;57.90;;;;;;5019615;28;20159;-71
2021/05/30 11:49:24;;;;;;;0.90;0.45;;;21.60;59.90;;;;;;5019624;28;20041;-70
2021/05/30 11:51:58;;;;;;;1.30;0.57;;;21.40;60.90;;;;;;5019535;28;20030;-71
2021/05/30 11:54:26;;;;;;;0.80;0.55;;;21.00;60.80;;;;;;5019505;28;20330;-71
2021/05/30 11:56:56;;;;;;;1.55;0.88;;;20.70;63.10;;;;;;5019403;28;20304;-71
2021/05/30 11:59:31;;;;;;;2.03;0.90;;;20.50;62.20;;;;;;5019064;28;20036;-71
2021/05/30 12:01:57;;;;;;;1.45;1.00;;;20.40;59.70;;;;;;5019337;28;20037;-71
2021/05/30 12:04:30;;;;;;;1.10;0.80;;;20.50;59.50;;;;;;5019184;28;20026;-71
2021/05/30 12:06:57;;;;;;;1.75;0.80;;;21.20;68.50;;;;;;5018947;28;20025;-71
2021/05/30 12:09:24;;;;;;;1.10;0.80;;;21.80;61.10;;;;;;5018884;28;20022;-71
2021/05/30 12:11:50;;;;;;;1.65;0.85;;;21.60;59.30;;;;;;5019097;28;20029;-71
2021/05/30 12:14:16;;;;;;;1.67;0.90;;;21.40;61.60;;;;;;5018963;28;20038;-71
2021/05/30 12:16:46;;;;;;;2.47;1.10;;;21.20;58.90;;;;;;5017632;28;20038;-71
2021/05/30 12:19:12;;;;;;;1.65;1.02;;;20.90;57.60;;;;;;5018692;28;20054;-71
2021/05/30 12:21:41;;;;;;;1.77;0.90;;;20.70;61.40;;;;;;5018945;28;20034;-70
2021/05/30 12:24:08;;;;;;;1.70;0.80;;;20.60;58.60;;;;;;5018563;28;20125;-71
2021/05/30 12:26:34;;;;;;;1.92;1.00;;;20.70;62.10;;;;;;5018810;28;20105;-71
2021/05/30 12:29:00;;;;;;;3.33;0.98;;;20.70;62.20;;;;;;5018490;28;20422;-71
2021/05/30 12:31:26;;;;;;;2.90;0.93;;;20.80;61.50;;;;;;5018722;28;20029;-71
2021/05/30 12:33:56;;;;;;;1.85;1.10;;;21.00;61.20;;;;;;5018763;28;20072;-71
2021/05/30 12:36:38;;;;;;;2.03;1.30;;;21.00;58.50;;;;;;5018653;28;20375;-71
2021/05/30 12:39:11;;;;;;;1.52;1.40;;;20.80;59.50;;;;;;5018387;28;20026;-71
2021/05/30 12:41:42;;;;;;;83.18;4.00;;;20.90;57.60;;;;;;5018615;28;20049;-71
2021/05/30 12:44:14;;;;;;;1.38;1.15;;;21.20;59.40;;;;;;5018161;28;20040;-71
2021/05/30 12:46:59;;;;;;;1.70;1.27;;;21.70;67.20;;;;;;5018152;28;20025;-71
2021/05/30 12:49:26;;;;;;;1.95;1.20;;;22.10;56.10;;;;;;5018518;28;20028;-71
2021/05/30 12:52:03;;;;;;;4.32;1.10;;;22.20;56.40;;;;;;5018255;28;20025;-71